sensor_id;sensor_type;location;lat;lon;timestamp;temperature;humidity
13591;DHT22;6866;50.778;7.206;2023-06-24T00:00:04;18.80;99.90
13591;DHT22;6866;50.778;7.206;2023-06-24T00:02:34;18.90;99.90
13591;DHT22;6866;50.778;7.206;2023-06-24T00:05:02;18.70;99.90
13591;DHT22;6866;50.778;7.206;2023-06-24T00:07:29;18.50;99.90
13591;DHT22;6866;50.778;7.206;2023-06-24T00:09:54;18.30;99.90
13591;DHT22;6866;50.778;7.206;2023-06-24T00:12:20;18.40;99.90
13591;DHT22;6866;50.778;7.206;2023-06-24T00:14:50;18.50;99.90
13591;DHT22;6866;50.778;7.206;2023-06-24T00:17:15;18.50;99.90
13591;DHT22;6866;50.778;7.206;2023-06-24T00:19:41;18.40;99.90
13591;DHT22;6866;50.778;7.206;2023-06-24T00:22:09;18.40;99.90
13591;DHT22;6866;50.778;7.206;2023-06-24T00:24:35;18.60;99.90
13591;DHT22;6866;50.778;7.206;2023-06-24T00:27:00;18.60;99.90
13591;DHT22;6866;50.778;7.206;2023-06-24T00:29:26;18.60;99.90
13591;DHT22;6866;50.778;7.206;2023-06-24T00:31:51;18.40;99.90
13591;DHT22;6866;50.778;7.206;2023-06-24T00:34:17;18.60;99.90
13591;DHT22;6866;50.778;7.206;2023-06-24T00:36:45;18.60;99.90
13591;DHT22;6866;50.778;7.206;2023-06-24T00:39:12;18.50;99.90
13591;DHT22;6866;50.778;7.206;2023-06-24T00:41:38;18.50;99.90
13591;DHT22;6866;50.778;7.206;2023-06-24T00:44:04;18.50;99.90
13591;DHT22;6866;50.778;7.206;2023-06-24T00:46:29;18.40;99.90
13591;DHT22;6866;50.778;7.206;2023-06-24T00:48:58;18.30;99.90
13591;DHT22;6866;50.778;7.206;2023-06-24T00:51:24;18.40;99.90
13591;DHT22;6866;50.778;7.206;2023-06-24T00:53:54;18.30;99.90
13591;DHT22;6866;50.778;7.206;2023-06-24T00:56:21;18.10;99.90
13591;DHT22;6866;50.778;7.206;2023-06-24T00:58:48;18.10;99.90
13591;DHT22;6866;50.778;7.206;2023-06-24T01:03:50;18.00;99.90
13591;DHT22;6866;50.778;7.206;2023-06-24T01:06:16;18.00;99.90
13591;DHT22;6866;50.778;7.206;2023-06-24T01:08:42;18.00;99.90
13591;DHT22;6866;50.778;7.206;2023-06-24T01:11:08;18.00;99.90
13591;DHT22;6866;50.778;7.206;2023-06-24T01:13:33;18.00;99.90
13591;DHT22;6866;50.778;7.206;2023-06-24T01:16:05;18.00;99.90
13591;DHT22;6866;50.778;7.206;2023-06-24T01:18:40;17.90;99.90
13591;DHT22;6866;50.778;7.206;2023-06-24T01:21:21;17.90;99.90
13591;DHT22;6866;50.778;7.206;2023-06-24T01:24:13;18.00;99.90
13591;DHT22;6866;50.778;7.206;2023-06-24T01:29:42;17.90;99.90
13591;DHT22;6866;50.778;7.206;2023-06-24T01:32:29;17.70;99.90
13591;DHT22;6866;50.778;7.206;2023-06-24T01:35:11;17.60;99.90
13591;DHT22;6866;50.778;7.206;2023-06-24T01:37:44;17.50;99.90
13591;DHT22;6866;50.778;7.206;2023-06-24T01:40:11;17.50;99.90
13591;DHT22;6866;50.778;7.206;2023-06-24T01:42:39;17.50;99.90
13591;DHT22;6866;50.778;7.206;2023-06-24T01:45:07;17.50;99.90
13591;DHT22;6866;50.778;7.206;2023-06-24T01:47:35;17.50;99.90
13591;DHT22;6866;50.778;7.206;2023-06-24T01:50:03;17.60;99.90
13591;DHT22;6866;50.778;7.206;2023-06-24T01:52:30;17.70;99.90
13591;DHT22;6866;50.778;7.206;2023-06-24T01:54:58;17.50;99.90
13591;DHT22;6866;50.778;7.206;2023-06-24T01:57:25;17.40;99.90
13591;DHT22;6866;50.778;7.206;2023-06-24T01:59:53;17.40;99.90
13591;DHT22;6866;50.778;7.206;2023-06-24T02:02:21;17.40;99.90
13591;DHT22;6866;50.778;7.206;2023-06-24T02:04:49;17.50;99.90
13591;DHT22;6866;50.778;7.206;2023-06-24T02:07:16;17.50;99.90
13591;DHT22;6866;50.778;7.206;2023-06-24T02:09:44;17.60;99.90
13591;DHT22;6866;50.778;7.206;2023-06-24T02:12:11;17.50;99.90
13591;DHT22;6866;50.778;7.206;2023-06-24T02:14:38;17.50;99.90
13591;DHT22;6866;50.778;7.206;2023-06-24T02:17:06;17.50;99.90
13591;DHT22;6866;50.778;7.206;2023-06-24T02:19:33;17.50;99.90
13591;DHT22;6866;50.778;7.206;2023-06-24T02:21:59;17.40;99.90
13591;DHT22;6866;50.778;7.206;2023-06-24T02:24:27;17.40;99.90
13591;DHT22;6866;50.778;7.206;2023-06-24T02:26:54;17.40;99.90
13591;DHT22;6866;50.778;7.206;2023-06-24T02:29:22;17.40;99.90
13591;DHT22;6866;50.778;7.206;2023-06-24T02:31:48;17.50;99.90
13591;DHT22;6866;50.778;7.206;2023-06-24T02:34:15;17.40;99.90
13591;DHT22;6866;50.778;7.206;2023-06-24T02:36:41;17.30;99.90
13591;DHT22;6866;50.778;7.206;2023-06-24T02:39:06;17.30;99.90
13591;DHT22;6866;50.778;7.206;2023-06-24T02:41:32;17.30;99.90
13591;DHT22;6866;50.778;7.206;2023-06-24T02:43:58;17.20;99.90
13591;DHT22;6866;50.778;7.206;2023-06-24T02:46:24;17.30;99.90
13591;DHT22;6866;50.778;7.206;2023-06-24T02:48:51;17.10;99.90
13591;DHT22;6866;50.778;7.206;2023-06-24T02:51:17;17.00;99.90
13591;DHT22;6866;50.778;7.206;2023-06-24T02:53:45;17.00;99.90
13591;DHT22;6866;50.778;7.206;2023-06-24T02:56:11;16.90;99.90
13591;DHT22;6866;50.778;7.206;2023-06-24T02:58:39;16.90;99.90
13591;DHT22;6866;50.778;7.206;2023-06-24T03:01:05;16.90;99.90
13591;DHT22;6866;50.778;7.206;2023-06-24T03:03:34;16.90;99.90
13591;DHT22;6866;50.778;7.206;2023-06-24T03:06:00;16.90;99.90
13591;DHT22;6866;50.778;7.206;2023-06-24T03:08:28;17.10;99.90
13591;DHT22;6866;50.778;7.206;2023-06-24T03:10:54;17.10;99.90
13591;DHT22;6866;50.778;7.206;2023-06-24T03:13:20;17.10;99.90
13591;DHT22;6866;50.778;7.206;2023-06-24T03:15:46;16.90;99.90
13591;DHT22;6866;50.778;7.206;2023-06-24T03:18:11;16.90;99.90
13591;DHT22;6866;50.778;7.206;2023-06-24T03:20:37;16.90;99.90
13591;DHT22;6866;50.778;7.206;2023-06-24T03:23:08;16.90;99.90
13591;DHT22;6866;50.778;7.206;2023-06-24T03:25:34;17.00;99.90
13591;DHT22;6866;50.778;7.206;2023-06-24T03:28:01;17.00;99.90
13591;DHT22;6866;50.778;7.206;2023-06-24T03:30:27;16.90;99.90
13591;DHT22;6866;50.778;7.206;2023-06-24T03:32:52;17.00;99.90
13591;DHT22;6866;50.778;7.206;2023-06-24T03:35:18;17.00;99.90
13591;DHT22;6866;50.778;7.206;2023-06-24T03:37:44;16.90;99.90
13591;DHT22;6866;50.778;7.206;2023-06-24T03:40:09;17.00;99.90
13591;DHT22;6866;50.778;7.206;2023-06-24T03:42:35;16.90;99.90
13591;DHT22;6866;50.778;7.206;2023-06-24T03:45:02;16.90;99.90
13591;DHT22;6866;50.778;7.206;2023-06-24T03:47:28;16.90;99.90
13591;DHT22;6866;50.778;7.206;2023-06-24T03:49:54;16.90;99.90
13591;DHT22;6866;50.778;7.206;2023-06-24T03:52:20;16.90;99.90
13591;DHT22;6866;50.778;7.206;2023-06-24T03:54:45;17.00;99.90
13591;DHT22;6866;50.778;7.206;2023-06-24T03:57:12;17.00;99.90
13591;DHT22;6866;50.778;7.206;2023-06-24T03:59:37;17.10;99.90
13591;DHT22;6866;50.778;7.206;2023-06-24T04:02:04;17.00;99.90
13591;DHT22;6866;50.778;7.206;2023-06-24T04:04:34;17.00;99.90
13591;DHT22;6866;50.778;7.206;2023-06-24T04:06:59;17.00;99.90
13591;DHT22;6866;50.778;7.206;2023-06-24T04:09:25;16.90;99.90
13591;DHT22;6866;50.778;7.206;2023-06-24T04:11:50;16.90;99.90
13591;DHT22;6866;50.778;7.206;2023-06-24T04:14:16;16.90;99.90
13591;DHT22;6866;50.778;7.206;2023-06-24T04:16:41;16.70;99.90
13591;DHT22;6866;50.778;7.206;2023-06-24T04:19:07;16.70;99.90
13591;DHT22;6866;50.778;7.206;2023-06-24T04:21:33;16.70;99.90
13591;DHT22;6866;50.778;7.206;2023-06-24T04:23:58;16.90;99.90
13591;DHT22;6866;50.778;7.206;2023-06-24T04:26:24;17.00;99.90
13591;DHT22;6866;50.778;7.206;2023-06-24T04:28:49;17.00;99.90
13591;DHT22;6866;50.778;7.206;2023-06-24T04:31:15;17.00;99.90
13591;DHT22;6866;50.778;7.206;2023-06-24T04:33:41;17.00;99.90
13591;DHT22;6866;50.778;7.206;2023-06-24T04:36:06;17.10;99.90
13591;DHT22;6866;50.778;7.206;2023-06-24T04:38:32;17.30;99.90
13591;DHT22;6866;50.778;7.206;2023-06-24T04:40:57;17.20;99.90
13591;DHT22;6866;50.778;7.206;2023-06-24T04:43:25;17.30;99.90
13591;DHT22;6866;50.778;7.206;2023-06-24T04:45:50;17.40;99.90
13591;DHT22;6866;50.778;7.206;2023-06-24T04:48:16;17.50;99.90
13591;DHT22;6866;50.778;7.206;2023-06-24T04:50:42;17.40;99.90
13591;DHT22;6866;50.778;7.206;2023-06-24T04:53:07;17.40;99.90
13591;DHT22;6866;50.778;7.206;2023-06-24T04:55:33;17.50;99.90
13591;DHT22;6866;50.778;7.206;2023-06-24T04:57:58;17.50;99.90
13591;DHT22;6866;50.778;7.206;2023-06-24T05:00:24;17.60;99.90
13591;DHT22;6866;50.778;7.206;2023-06-24T05:02:50;17.60;99.90
13591;DHT22;6866;50.778;7.206;2023-06-24T05:05:15;17.70;99.90
13591;DHT22;6866;50.778;7.206;2023-06-24T05:07:41;17.80;99.90
13591;DHT22;6866;50.778;7.206;2023-06-24T05:10:07;18.00;99.90
13591;DHT22;6866;50.778;7.206;2023-06-24T05:12:32;17.80;99.90
13591;DHT22;6866;50.778;7.206;2023-06-24T05:14:58;18.00;99.90
13591;DHT22;6866;50.778;7.206;2023-06-24T05:17:23;18.70;99.90
13591;DHT22;6866;50.778;7.206;2023-06-24T05:19:49;18.90;99.90
13591;DHT22;6866;50.778;7.206;2023-06-24T05:22:15;19.00;99.90
13591;DHT22;6866;50.778;7.206;2023-06-24T05:24:40;19.40;99.90
13591;DHT22;6866;50.778;7.206;2023-06-24T05:27:07;19.10;99.90
13591;DHT22;6866;50.778;7.206;2023-06-24T05:29:33;19.30;99.90
13591;DHT22;6866;50.778;7.206;2023-06-24T05:31:58;19.60;99.90
13591;DHT22;6866;50.778;7.206;2023-06-24T05:34:25;20.70;99.90
13591;DHT22;6866;50.778;7.206;2023-06-24T05:36:50;22.20;94.80
13591;DHT22;6866;50.778;7.206;2023-06-24T05:39:17;22.10;93.90
13591;DHT22;6866;50.778;7.206;2023-06-24T05:41:42;21.90;94.00
13591;DHT22;6866;50.778;7.206;2023-06-24T05:44:08;21.50;96.10
13591;DHT22;6866;50.778;7.206;2023-06-24T05:46:35;22.60;93.90
13591;DHT22;6866;50.778;7.206;2023-06-24T05:49:01;24.50;82.50
13591;DHT22;6866;50.778;7.206;2023-06-24T05:51:27;25.20;73.00
13591;DHT22;6866;50.778;7.206;2023-06-24T05:53:53;26.10;68.90
13591;DHT22;6866;50.778;7.206;2023-06-24T05:56:20;26.70;65.70
13591;DHT22;6866;50.778;7.206;2023-06-24T05:58:45;27.30;62.20
13591;DHT22;6866;50.778;7.206;2023-06-24T06:01:11;26.80;62.40
13591;DHT22;6866;50.778;7.206;2023-06-24T06:03:37;27.10;60.80
13591;DHT22;6866;50.778;7.206;2023-06-24T06:06:02;27.60;59.80
13591;DHT22;6866;50.778;7.206;2023-06-24T06:08:28;28.00;58.60
13591;DHT22;6866;50.778;7.206;2023-06-24T06:10:53;28.50;56.20
13591;DHT22;6866;50.778;7.206;2023-06-24T06:13:19;28.80;55.60
13591;DHT22;6866;50.778;7.206;2023-06-24T06:15:44;28.70;54.70
13591;DHT22;6866;50.778;7.206;2023-06-24T06:18:10;29.10;53.90
13591;DHT22;6866;50.778;7.206;2023-06-24T06:20:35;28.90;53.60
13591;DHT22;6866;50.778;7.206;2023-06-24T06:23:01;29.20;53.40
13591;DHT22;6866;50.778;7.206;2023-06-24T06:25:26;28.80;53.20
13591;DHT22;6866;50.778;7.206;2023-06-24T06:27:52;29.80;52.30
13591;DHT22;6866;50.778;7.206;2023-06-24T06:30:17;29.60;51.40
13591;DHT22;6866;50.778;7.206;2023-06-24T06:32:43;29.00;52.30
13591;DHT22;6866;50.778;7.206;2023-06-24T06:35:09;29.50;50.80
13591;DHT22;6866;50.778;7.206;2023-06-24T06:37:34;29.80;50.70
13591;DHT22;6866;50.778;7.206;2023-06-24T06:40:00;29.70;51.70
13591;DHT22;6866;50.778;7.206;2023-06-24T06:42:25;30.20;50.30
13591;DHT22;6866;50.778;7.206;2023-06-24T06:44:51;30.40;50.30
13591;DHT22;6866;50.778;7.206;2023-06-24T06:47:17;30.20;49.80
13591;DHT22;6866;50.778;7.206;2023-06-24T06:49:43;30.50;50.40
13591;DHT22;6866;50.778;7.206;2023-06-24T06:52:08;30.70;47.70
13591;DHT22;6866;50.778;7.206;2023-06-24T06:54:34;30.90;48.40
13591;DHT22;6866;50.778;7.206;2023-06-24T06:57:00;31.30;46.90
13591;DHT22;6866;50.778;7.206;2023-06-24T06:59:25;30.90;47.70
13591;DHT22;6866;50.778;7.206;2023-06-24T07:01:50;30.60;47.10
13591;DHT22;6866;50.778;7.206;2023-06-24T07:04:16;31.10;47.30
13591;DHT22;6866;50.778;7.206;2023-06-24T07:06:41;31.10;46.40
13591;DHT22;6866;50.778;7.206;2023-06-24T07:09:07;31.30;47.10
13591;DHT22;6866;50.778;7.206;2023-06-24T07:11:32;31.50;46.00
13591;DHT22;6866;50.778;7.206;2023-06-24T07:13:58;31.90;45.30
13591;DHT22;6866;50.778;7.206;2023-06-24T07:16:23;31.30;46.30
13591;DHT22;6866;50.778;7.206;2023-06-24T07:18:49;31.70;46.50
13591;DHT22;6866;50.778;7.206;2023-06-24T07:21:14;32.00;44.80
13591;DHT22;6866;50.778;7.206;2023-06-24T07:23:40;30.60;45.40
13591;DHT22;6866;50.778;7.206;2023-06-24T07:26:07;32.10;44.70
13591;DHT22;6866;50.778;7.206;2023-06-24T07:28:32;32.30;44.70
13591;DHT22;6866;50.778;7.206;2023-06-24T07:30:57;32.50;44.40
13591;DHT22;6866;50.778;7.206;2023-06-24T07:33:23;32.90;42.50
13591;DHT22;6866;50.778;7.206;2023-06-24T07:35:48;32.60;42.20
13591;DHT22;6866;50.778;7.206;2023-06-24T07:38:14;33.10;41.70
13591;DHT22;6866;50.778;7.206;2023-06-24T07:40:39;32.90;41.10
13591;DHT22;6866;50.778;7.206;2023-06-24T07:43:05;32.70;41.40
13591;DHT22;6866;50.778;7.206;2023-06-24T07:45:30;31.90;42.60
13591;DHT22;6866;50.778;7.206;2023-06-24T07:47:56;32.50;42.20
13591;DHT22;6866;50.778;7.206;2023-06-24T07:50:21;33.10;41.20
13591;DHT22;6866;50.778;7.206;2023-06-24T07:52:47;32.40;41.50
13591;DHT22;6866;50.778;7.206;2023-06-24T07:55:12;32.50;42.40
13591;DHT22;6866;50.778;7.206;2023-06-24T07:57:37;33.10;41.50
13591;DHT22;6866;50.778;7.206;2023-06-24T08:00:03;33.60;40.10
13591;DHT22;6866;50.778;7.206;2023-06-24T08:02:29;33.50;40.10
13591;DHT22;6866;50.778;7.206;2023-06-24T08:04:55;33.20;40.70
13591;DHT22;6866;50.778;7.206;2023-06-24T08:07:21;32.80;41.70
13591;DHT22;6866;50.778;7.206;2023-06-24T08:09:46;32.70;41.80
13591;DHT22;6866;50.778;7.206;2023-06-24T08:12:11;32.10;41.90
13591;DHT22;6866;50.778;7.206;2023-06-24T08:14:37;31.60;41.90
13591;DHT22;6866;50.778;7.206;2023-06-24T08:17:02;32.50;42.00
13591;DHT22;6866;50.778;7.206;2023-06-24T08:19:28;33.20;41.30
13591;DHT22;6866;50.778;7.206;2023-06-24T08:21:53;33.60;39.50
13591;DHT22;6866;50.778;7.206;2023-06-24T08:24:19;32.40;39.80
13591;DHT22;6866;50.778;7.206;2023-06-24T08:26:44;32.10;41.90
13591;DHT22;6866;50.778;7.206;2023-06-24T08:29:10;33.00;41.60
13591;DHT22;6866;50.778;7.206;2023-06-24T08:31:35;32.90;41.30
13591;DHT22;6866;50.778;7.206;2023-06-24T08:34:01;33.40;40.60
13591;DHT22;6866;50.778;7.206;2023-06-24T08:36:31;32.70;39.50
13591;DHT22;6866;50.778;7.206;2023-06-24T08:38:56;33.10;41.50
13591;DHT22;6866;50.778;7.206;2023-06-24T08:41:22;33.90;39.70
13591;DHT22;6866;50.778;7.206;2023-06-24T08:43:50;34.10;38.50
13591;DHT22;6866;50.778;7.206;2023-06-24T08:46:16;33.60;38.70
13591;DHT22;6866;50.778;7.206;2023-06-24T08:48:42;33.40;41.40
13591;DHT22;6866;50.778;7.206;2023-06-24T08:51:08;32.80;39.40
13591;DHT22;6866;50.778;7.206;2023-06-24T08:53:34;32.40;40.20
13591;DHT22;6866;50.778;7.206;2023-06-24T08:55:59;32.10;41.90
13591;DHT22;6866;50.778;7.206;2023-06-24T08:58:25;32.10;41.60
13591;DHT22;6866;50.778;7.206;2023-06-24T09:00:51;32.40;41.10
13591;DHT22;6866;50.778;7.206;2023-06-24T09:03:16;32.90;40.90
13591;DHT22;6866;50.778;7.206;2023-06-24T09:05:42;32.70;39.90
13591;DHT22;6866;50.778;7.206;2023-06-24T09:08:09;32.20;42.00
13591;DHT22;6866;50.778;7.206;2023-06-24T09:10:35;31.90;42.10
13591;DHT22;6866;50.778;7.206;2023-06-24T09:13:01;32.50;42.50
13591;DHT22;6866;50.778;7.206;2023-06-24T09:15:34;32.70;40.70
13591;DHT22;6866;50.778;7.206;2023-06-24T09:18:00;32.50;40.90
13591;DHT22;6866;50.778;7.206;2023-06-24T09:20:29;31.60;41.50
13591;DHT22;6866;50.778;7.206;2023-06-24T09:23:01;31.50;43.10
13591;DHT22;6866;50.778;7.206;2023-06-24T09:25:27;31.40;43.30
13591;DHT22;6866;50.778;7.206;2023-06-24T09:27:53;31.70;43.40
13591;DHT22;6866;50.778;7.206;2023-06-24T09:30:22;32.40;42.60
13591;DHT22;6866;50.778;7.206;2023-06-24T09:32:49;32.20;43.40
13591;DHT22;6866;50.778;7.206;2023-06-24T09:35:19;32.00;42.70
13591;DHT22;6866;50.778;7.206;2023-06-24T09:37:52;31.60;42.60
13591;DHT22;6866;50.778;7.206;2023-06-24T09:40:19;31.50;42.10
13591;DHT22;6866;50.778;7.206;2023-06-24T09:42:55;31.80;42.40
13591;DHT22;6866;50.778;7.206;2023-06-24T09:45:23;31.50;40.90
13591;DHT22;6866;50.778;7.206;2023-06-24T09:47:49;31.50;42.00
13591;DHT22;6866;50.778;7.206;2023-06-24T09:50:14;31.90;42.20
13591;DHT22;6866;50.778;7.206;2023-06-24T09:52:40;31.30;40.60
13591;DHT22;6866;50.778;7.206;2023-06-24T09:55:07;31.00;43.00
13591;DHT22;6866;50.778;7.206;2023-06-24T09:57:35;31.10;42.40
13591;DHT22;6866;50.778;7.206;2023-06-24T10:00:02;31.80;42.10
13591;DHT22;6866;50.778;7.206;2023-06-24T10:02:29;32.10;41.30
13591;DHT22;6866;50.778;7.206;2023-06-24T10:04:56;31.70;42.10
13591;DHT22;6866;50.778;7.206;2023-06-24T10:07:22;31.30;42.60
13591;DHT22;6866;50.778;7.206;2023-06-24T10:09:48;31.70;43.10
13591;DHT22;6866;50.778;7.206;2023-06-24T10:12:14;31.90;43.30
13591;DHT22;6866;50.778;7.206;2023-06-24T10:14:40;31.70;40.80
13591;DHT22;6866;50.778;7.206;2023-06-24T10:17:05;31.60;41.30
13591;DHT22;6866;50.778;7.206;2023-06-24T10:19:41;31.10;42.90
13591;DHT22;6866;50.778;7.206;2023-06-24T10:22:10;30.90;43.30
13591;DHT22;6866;50.778;7.206;2023-06-24T10:24:40;31.00;44.00
13591;DHT22;6866;50.778;7.206;2023-06-24T10:27:15;31.50;43.00
13591;DHT22;6866;50.778;7.206;2023-06-24T10:29:45;31.60;41.90
13591;DHT22;6866;50.778;7.206;2023-06-24T10:32:12;31.70;43.20
13591;DHT22;6866;50.778;7.206;2023-06-24T10:44:50;31.50;43.00
13591;DHT22;6866;50.778;7.206;2023-06-24T10:47:16;31.30;40.50
13591;DHT22;6866;50.778;7.206;2023-06-24T10:49:42;30.80;40.20
13591;DHT22;6866;50.778;7.206;2023-06-24T10:52:11;30.50;41.00
13591;DHT22;6866;50.778;7.206;2023-06-24T10:54:37;30.20;42.90
13591;DHT22;6866;50.778;7.206;2023-06-24T10:57:12;30.40;43.80
13591;DHT22;6866;50.778;7.206;2023-06-24T10:59:42;30.40;43.90
13591;DHT22;6866;50.778;7.206;2023-06-24T11:02:08;29.90;43.90
13591;DHT22;6866;50.778;7.206;2023-06-24T11:04:42;29.60;43.40
13591;DHT22;6866;50.778;7.206;2023-06-24T11:07:08;29.30;43.80
13591;DHT22;6866;50.778;7.206;2023-06-24T11:09:33;29.90;43.90
13591;DHT22;6866;50.778;7.206;2023-06-24T11:11:59;30.60;43.90
13591;DHT22;6866;50.778;7.206;2023-06-24T11:14:27;31.10;43.50
13591;DHT22;6866;50.778;7.206;2023-06-24T11:16:52;30.90;40.60
13591;DHT22;6866;50.778;7.206;2023-06-24T11:19:18;31.30;41.50
13591;DHT22;6866;50.778;7.206;2023-06-24T11:21:43;31.30;42.20
13591;DHT22;6866;50.778;7.206;2023-06-24T11:24:09;31.20;41.80
13591;DHT22;6866;50.778;7.206;2023-06-24T11:26:36;30.10;42.60
13591;DHT22;6866;50.778;7.206;2023-06-24T11:29:12;30.00;43.90
13591;DHT22;6866;50.778;7.206;2023-06-24T11:31:37;30.00;44.20
13591;DHT22;6866;50.778;7.206;2023-06-24T11:34:04;29.60;44.40
13591;DHT22;6866;50.778;7.206;2023-06-24T11:36:29;29.90;46.10
13591;DHT22;6866;50.778;7.206;2023-06-24T11:38:55;29.60;43.90
13591;DHT22;6866;50.778;7.206;2023-06-24T11:41:21;29.70;44.60
13591;DHT22;6866;50.778;7.206;2023-06-24T11:43:47;29.50;45.00
13591;DHT22;6866;50.778;7.206;2023-06-24T11:46:26;30.00;44.70
13591;DHT22;6866;50.778;7.206;2023-06-24T11:49:13;30.10;42.80
13591;DHT22;6866;50.778;7.206;2023-06-24T11:51:46;30.00;43.40
13591;DHT22;6866;50.778;7.206;2023-06-24T11:54:20;30.50;43.80
13591;DHT22;6866;50.778;7.206;2023-06-24T11:56:51;30.90;43.20
13591;DHT22;6866;50.778;7.206;2023-06-24T11:59:23;31.00;42.30
13591;DHT22;6866;50.778;7.206;2023-06-24T12:01:57;31.30;42.70
13591;DHT22;6866;50.778;7.206;2023-06-24T12:04:30;31.20;41.70
13591;DHT22;6866;50.778;7.206;2023-06-24T12:06:56;31.50;41.10
13591;DHT22;6866;50.778;7.206;2023-06-24T12:09:21;31.70;40.40
13591;DHT22;6866;50.778;7.206;2023-06-24T12:11:47;31.20;41.00
13591;DHT22;6866;50.778;7.206;2023-06-24T12:14:13;31.20;41.60
13591;DHT22;6866;50.778;7.206;2023-06-24T12:16:39;31.50;40.20
13591;DHT22;6866;50.778;7.206;2023-06-24T12:19:06;31.60;39.20
13591;DHT22;6866;50.778;7.206;2023-06-24T12:21:31;31.30;39.20
13591;DHT22;6866;50.778;7.206;2023-06-24T12:23:57;30.90;40.90
13591;DHT22;6866;50.778;7.206;2023-06-24T12:26:24;31.30;40.70
13591;DHT22;6866;50.778;7.206;2023-06-24T12:28:50;31.70;40.40
13591;DHT22;6866;50.778;7.206;2023-06-24T12:31:15;31.70;40.80
13591;DHT22;6866;50.778;7.206;2023-06-24T12:33:41;31.80;39.40
13591;DHT22;6866;50.778;7.206;2023-06-24T12:36:06;31.60;39.30
13591;DHT22;6866;50.778;7.206;2023-06-24T12:38:32;31.80;37.70
13591;DHT22;6866;50.778;7.206;2023-06-24T12:40:58;31.40;37.90
13591;DHT22;6866;50.778;7.206;2023-06-24T12:43:23;31.80;38.20
13591;DHT22;6866;50.778;7.206;2023-06-24T12:45:49;31.40;38.50
13591;DHT22;6866;50.778;7.206;2023-06-24T12:48:16;30.70;41.00
13591;DHT22;6866;50.778;7.206;2023-06-24T12:50:42;29.90;42.20
13591;DHT22;6866;50.778;7.206;2023-06-24T12:53:08;30.20;43.30
13591;DHT22;6866;50.778;7.206;2023-06-24T12:55:36;30.30;41.70
13591;DHT22;6866;50.778;7.206;2023-06-24T12:58:01;30.80;40.60
13591;DHT22;6866;50.778;7.206;2023-06-24T13:00:27;30.90;39.70
13591;DHT22;6866;50.778;7.206;2023-06-24T13:02:52;30.90;39.40
13591;DHT22;6866;50.778;7.206;2023-06-24T13:05:18;31.20;41.00
13591;DHT22;6866;50.778;7.206;2023-06-24T13:07:44;31.60;40.30
13591;DHT22;6866;50.778;7.206;2023-06-24T13:10:10;31.60;39.80
13591;DHT22;6866;50.778;7.206;2023-06-24T13:12:36;31.70;39.30
13591;DHT22;6866;50.778;7.206;2023-06-24T13:15:06;31.90;38.70
13591;DHT22;6866;50.778;7.206;2023-06-24T13:17:32;32.00;39.30
13591;DHT22;6866;50.778;7.206;2023-06-24T13:19:58;31.70;39.10
13591;DHT22;6866;50.778;7.206;2023-06-24T13:22:23;31.40;38.20
13591;DHT22;6866;50.778;7.206;2023-06-24T13:24:49;31.70;38.10
13591;DHT22;6866;50.778;7.206;2023-06-24T13:27:15;31.90;38.80
13591;DHT22;6866;50.778;7.206;2023-06-24T13:29:42;32.20;37.20
13591;DHT22;6866;50.778;7.206;2023-06-24T13:32:08;31.80;36.60
13591;DHT22;6866;50.778;7.206;2023-06-24T13:34:33;32.00;36.80
13591;DHT22;6866;50.778;7.206;2023-06-24T13:36:59;31.80;36.90
13591;DHT22;6866;50.778;7.206;2023-06-24T13:39:25;31.90;37.90
13591;DHT22;6866;50.778;7.206;2023-06-24T13:41:50;31.90;37.60
13591;DHT22;6866;50.778;7.206;2023-06-24T13:44:17;32.00;37.50
13591;DHT22;6866;50.778;7.206;2023-06-24T13:46:43;32.00;36.70
13591;DHT22;6866;50.778;7.206;2023-06-24T13:49:09;32.00;36.90
13591;DHT22;6866;50.778;7.206;2023-06-24T13:51:35;31.70;36.30
13591;DHT22;6866;50.778;7.206;2023-06-24T13:54:00;31.50;36.10
13591;DHT22;6866;50.778;7.206;2023-06-24T13:56:27;31.50;36.60
13591;DHT22;6866;50.778;7.206;2023-06-24T13:58:53;31.80;36.20
13591;DHT22;6866;50.778;7.206;2023-06-24T14:01:20;31.90;35.80
13591;DHT22;6866;50.778;7.206;2023-06-24T14:03:46;31.70;35.40
13591;DHT22;6866;50.778;7.206;2023-06-24T14:06:14;31.60;36.10
13591;DHT22;6866;50.778;7.206;2023-06-24T14:08:51;31.60;36.10
13591;DHT22;6866;50.778;7.206;2023-06-24T14:11:17;31.60;36.90
13591;DHT22;6866;50.778;7.206;2023-06-24T14:13:43;31.40;36.20
13591;DHT22;6866;50.778;7.206;2023-06-24T14:16:10;31.60;36.70
13591;DHT22;6866;50.778;7.206;2023-06-24T14:18:36;31.40;36.40
13591;DHT22;6866;50.778;7.206;2023-06-24T14:21:03;31.20;35.30
13591;DHT22;6866;50.778;7.206;2023-06-24T14:23:30;31.50;35.70
13591;DHT22;6866;50.778;7.206;2023-06-24T14:25:56;31.60;36.10
13591;DHT22;6866;50.778;7.206;2023-06-24T14:28:21;31.40;36.90
13591;DHT22;6866;50.778;7.206;2023-06-24T14:30:47;31.40;37.20
13591;DHT22;6866;50.778;7.206;2023-06-24T14:33:13;31.50;36.50
13591;DHT22;6866;50.778;7.206;2023-06-24T14:35:38;31.50;35.80
13591;DHT22;6866;50.778;7.206;2023-06-24T14:38:04;31.50;36.70
13591;DHT22;6866;50.778;7.206;2023-06-24T14:40:29;31.50;35.80
13591;DHT22;6866;50.778;7.206;2023-06-24T14:42:55;31.40;36.30
13591;DHT22;6866;50.778;7.206;2023-06-24T14:45:20;31.20;36.60
13591;DHT22;6866;50.778;7.206;2023-06-24T14:47:46;31.30;36.60
13591;DHT22;6866;50.778;7.206;2023-06-24T14:50:12;31.30;36.40
13591;DHT22;6866;50.778;7.206;2023-06-24T14:52:37;31.60;36.60
13591;DHT22;6866;50.778;7.206;2023-06-24T14:55:03;31.50;36.10
13591;DHT22;6866;50.778;7.206;2023-06-24T14:57:29;31.40;36.70
13591;DHT22;6866;50.778;7.206;2023-06-24T14:59:54;31.30;35.80
13591;DHT22;6866;50.778;7.206;2023-06-24T15:02:20;31.30;36.50
13591;DHT22;6866;50.778;7.206;2023-06-24T15:04:45;31.20;35.70
13591;DHT22;6866;50.778;7.206;2023-06-24T15:07:11;31.20;35.50
13591;DHT22;6866;50.778;7.206;2023-06-24T15:09:37;31.20;35.60
13591;DHT22;6866;50.778;7.206;2023-06-24T15:12:02;31.10;36.70
13591;DHT22;6866;50.778;7.206;2023-06-24T15:14:28;31.10;36.80
13591;DHT22;6866;50.778;7.206;2023-06-24T15:16:53;31.20;36.10
13591;DHT22;6866;50.778;7.206;2023-06-24T15:19:23;31.30;34.60
13591;DHT22;6866;50.778;7.206;2023-06-24T15:21:48;31.10;34.30
13591;DHT22;6866;50.778;7.206;2023-06-24T15:24:14;31.00;35.10
13591;DHT22;6866;50.778;7.206;2023-06-24T15:26:39;31.10;35.60
13591;DHT22;6866;50.778;7.206;2023-06-24T15:29:05;31.00;33.80
13591;DHT22;6866;50.778;7.206;2023-06-24T15:31:30;31.10;33.80
13591;DHT22;6866;50.778;7.206;2023-06-24T15:33:56;31.00;33.50
13591;DHT22;6866;50.778;7.206;2023-06-24T15:36:22;31.00;33.00
13591;DHT22;6866;50.778;7.206;2023-06-24T15:38:47;30.90;33.10
13591;DHT22;6866;50.778;7.206;2023-06-24T15:41:13;30.90;34.30
13591;DHT22;6866;50.778;7.206;2023-06-24T15:43:39;30.80;34.90
13591;DHT22;6866;50.778;7.206;2023-06-24T15:46:05;30.80;35.60
13591;DHT22;6866;50.778;7.206;2023-06-24T15:48:31;30.70;35.90
13591;DHT22;6866;50.778;7.206;2023-06-24T15:50:57;30.60;34.70
13591;DHT22;6866;50.778;7.206;2023-06-24T15:53:25;30.40;34.30
13591;DHT22;6866;50.778;7.206;2023-06-24T15:55:50;30.40;36.50